createdAt,value
2024-03-01T00:00:29.417Z,11.77
2024-03-01T00:02:59.437Z,12.10
2024-03-01T00:05:53.881Z,12.27
2024-03-01T00:08:22.620Z,10.50
2024-03-01T00:10:51.184Z,11.88
2024-03-01T00:13:19.959Z,13.18
2024-03-01T00:15:48.544Z,12.98
2024-03-01T00:18:19.274Z,13.70
2024-03-01T00:20:48.212Z,11.07
2024-03-01T00:23:16.726Z,15.40
2024-03-01T00:25:46.173Z,10.85
2024-03-01T00:28:14.826Z,13.25
2024-03-01T00:30:43.440Z,12.52
2024-03-01T00:33:11.978Z,11.45
2024-03-01T00:35:42.046Z,11.02
2024-03-01T00:38:10.748Z,11.80
2024-03-01T00:40:39.290Z,11.68
2024-03-01T00:43:07.862Z,13.45
2024-03-01T00:45:36.333Z,11.23
2024-03-01T00:48:10.646Z,11.30
2024-03-01T00:50:39.220Z,12.32
2024-03-01T00:53:10.761Z,10.35
2024-03-01T00:55:39.662Z,12.02
2024-03-01T00:58:09.241Z,11.25
2024-03-01T01:00:37.947Z,9.02
2024-03-01T01:03:06.487Z,11.45
2024-03-01T01:05:35.116Z,9.45
2024-03-01T01:08:04.984Z,11.30
2024-03-01T01:10:35.104Z,10.82
2024-03-01T01:13:03.700Z,10.80
2024-03-01T01:15:32.331Z,9.40
2024-03-01T01:18:00.923Z,10.68
2024-03-01T01:20:29.652Z,10.57
2024-03-01T01:22:58.449Z,11.38
2024-03-01T01:25:27.063Z,10.55
2024-03-01T01:27:57.704Z,9.02
2024-03-01T01:30:26.515Z,10.20
2024-03-01T01:32:55.134Z,10.15
2024-03-01T01:35:23.996Z,9.80
2024-03-01T01:37:52.603Z,8.95
2024-03-01T01:40:21.192Z,8.77
2024-03-01T01:42:52.816Z,8.52
2024-03-01T01:45:22.895Z,7.75
2024-03-01T01:47:51.575Z,9.80
2024-03-01T01:50:20.818Z,10.73
2024-03-01T01:52:49.580Z,9.60
2024-03-01T01:55:18.482Z,10.93
2024-03-01T01:57:48.466Z,10.13
2024-03-01T02:00:17.422Z,8.60
2024-03-01T02:02:51.975Z,10.43
2024-03-01T02:05:21.123Z,8.38
2024-03-01T02:07:50.756Z,9.82
2024-03-01T02:10:20.908Z,10.05
2024-03-01T02:13:02.890Z,8.80
2024-03-01T02:15:32.256Z,8.73
2024-03-01T02:18:02.665Z,8.35
2024-03-01T02:20:33.551Z,10.40
2024-03-01T02:23:09.442Z,10.48
2024-03-01T02:25:39.688Z,8.90
2024-03-01T02:28:08.454Z,8.07
2024-03-01T02:30:37.007Z,9.45
2024-03-01T02:33:06.184Z,12.02
2024-03-01T02:35:34.695Z,12.85
2024-03-01T02:38:03.328Z,11.20
2024-03-01T02:40:32.073Z,10.32
2024-03-01T02:43:02.150Z,11.25
2024-03-01T02:45:30.705Z,11.50
2024-03-01T02:47:59.426Z,11.35
2024-03-01T02:50:27.891Z,11.18
2024-03-01T02:52:56.472Z,11.48
2024-03-01T02:55:25.157Z,12.20
2024-03-01T02:57:54.681Z,11.75
2024-03-01T03:00:26.126Z,10.93
2024-03-01T03:02:55.489Z,11.25
2024-03-01T03:05:24.096Z,11.05
2024-03-01T03:07:53.023Z,9.65
2024-03-01T03:10:21.773Z,10.05
2024-03-01T03:12:50.666Z,8.27
2024-03-01T03:15:19.590Z,9.05
2024-03-01T03:17:50.347Z,10.00
2024-03-01T03:20:19.921Z,11.52
2024-03-01T03:22:48.613Z,8.93
2024-03-01T03:25:17.403Z,8.32
2024-03-01T03:27:46.019Z,7.90
2024-03-01T03:30:15.163Z,9.90
2024-03-01T03:32:43.753Z,7.75
2024-03-01T03:35:14.034Z,8.20
2024-03-01T03:37:42.671Z,8.60
2024-03-01T03:40:15.944Z,8.57
2024-03-01T03:42:45.310Z,10.00
2024-03-01T03:45:14.141Z,8.02
2024-03-01T03:47:42.729Z,11.35
2024-03-01T03:50:11.421Z,9.45
2024-03-01T03:52:43.123Z,11.40
2024-03-01T03:55:12.222Z,10.93
2024-03-01T03:57:40.820Z,9.40
2024-03-01T04:00:11.537Z,8.90
2024-03-01T04:05:09.955Z,10.30
2024-03-01T04:07:39.313Z,9.55
2024-03-01T04:10:10.784Z,8.77
2024-03-01T04:12:40.688Z,9.85
2024-03-01T04:15:10.292Z,8.20
2024-03-01T04:17:39.255Z,8.45
2024-03-01T04:20:09.533Z,11.00
2024-03-01T04:22:38.491Z,9.02
2024-03-01T04:25:10.402Z,8.27
2024-03-01T04:27:40.323Z,9.05
2024-03-01T04:30:10.902Z,9.45
2024-03-01T04:32:39.836Z,8.35
2024-03-01T04:35:09.066Z,9.48
2024-03-01T04:37:37.997Z,9.95
2024-03-01T04:40:10.869Z,8.10
2024-03-01T04:42:42.952Z,8.77
2024-03-01T04:45:12.022Z,9.52
2024-03-01T04:47:40.872Z,8.38
2024-03-01T04:50:10.418Z,8.18
2024-03-01T04:52:39.489Z,8.85
2024-03-01T04:55:11.027Z,9.07
2024-03-01T04:57:40.165Z,9.50
2024-03-01T05:00:13.614Z,8.73
2024-03-01T05:02:42.909Z,8.80
2024-03-01T05:05:11.796Z,7.40
2024-03-01T05:07:41.130Z,6.30
2024-03-01T05:10:12.411Z,8.15
2024-03-01T05:12:44.353Z,8.93
2024-03-01T05:15:13.847Z,9.93
2024-03-01T05:17:43.731Z,9.82
2024-03-01T05:20:13.481Z,9.02
2024-03-01T05:22:43.566Z,8.65
2024-03-01T05:25:20.878Z,8.02
2024-03-01T05:27:51.041Z,10.13
2024-03-01T05:30:32.848Z,9.00
2024-03-01T05:33:10.167Z,8.23
2024-03-01T05:35:39.650Z,8.88
2024-03-01T05:38:08.490Z,10.10
2024-03-01T05:40:46.701Z,8.02
2024-03-01T05:43:23.741Z,8.50
2024-03-01T05:45:53.823Z,8.75
2024-03-01T05:48:24.923Z,9.95
2024-03-01T05:50:54.190Z,8.07
2024-03-01T05:53:22.873Z,9.30
2024-03-01T05:55:55.882Z,8.80
2024-03-01T05:58:26.624Z,8.65
2024-03-01T06:00:56.608Z,9.98
2024-03-01T06:03:26.036Z,8.90
2024-03-01T06:05:56.490Z,8.90
2024-03-01T06:08:25.396Z,9.10
2024-03-01T06:13:27.118Z,9.75
2024-03-01T06:15:56.142Z,6.28
2024-03-01T06:18:27.975Z,6.72
2024-03-01T06:20:56.857Z,5.85
2024-03-01T06:23:25.667Z,7.28
2024-03-01T06:25:54.497Z,6.30
2024-03-01T06:28:24.912Z,6.13
2024-03-01T06:30:54.673Z,5.40
2024-03-01T06:33:23.657Z,5.43
2024-03-01T06:35:52.438Z,4.97
2024-03-01T06:38:21.387Z,5.75
2024-03-01T06:40:50.205Z,4.80
2024-03-01T06:43:21.707Z,5.43
2024-03-01T06:45:55.139Z,5.47
2024-03-01T06:48:24.137Z,6.32
2024-03-01T06:50:52.980Z,6.55
2024-03-01T06:53:21.963Z,8.40
2024-03-01T06:55:50.733Z,7.55
2024-03-01T06:58:19.598Z,6.72
2024-03-01T07:00:50.123Z,7.55
2024-03-01T07:03:22.811Z,6.65
2024-03-01T07:05:56.399Z,7.90
2024-03-01T07:08:25.943Z,7.18
2024-03-01T07:11:00.498Z,7.30
2024-03-01T07:13:32.645Z,7.15
2024-03-01T07:16:03.905Z,6.82
2024-03-01T07:18:37.149Z,7.13
2024-03-01T07:21:06.492Z,5.65
2024-03-01T07:23:35.107Z,5.93
2024-03-01T07:26:06.902Z,4.47
2024-03-01T07:28:36.209Z,5.25
2024-03-01T07:31:05.412Z,4.80
2024-03-01T07:33:35.788Z,4.43
2024-03-01T07:36:05.053Z,4.93
2024-03-01T07:38:33.718Z,5.03
2024-03-01T07:41:02.670Z,4.57
2024-03-01T07:43:31.501Z,3.55
2024-03-01T07:46:00.337Z,4.72
2024-03-01T07:48:29.263Z,5.13
2024-03-01T07:50:59.337Z,4.45
2024-03-01T07:53:29.418Z,7.03
2024-03-01T07:55:58.562Z,6.07
2024-03-01T07:58:27.411Z,5.03
2024-03-01T08:00:57.343Z,4.00
2024-03-01T08:03:26.204Z,4.53
2024-03-01T08:05:55.349Z,4.38
2024-03-01T08:08:41.479Z,4.07
2024-03-01T08:11:11.288Z,4.88
2024-03-01T08:13:42.185Z,3.03
2024-03-01T08:16:15.141Z,5.13
2024-03-01T08:18:45.442Z,5.05
2024-03-01T08:21:16.570Z,5.30
2024-03-01T08:26:25.399Z,5.75
2024-03-01T08:28:54.993Z,6.85
2024-03-01T08:31:28.862Z,7.28
2024-03-01T08:34:05.633Z,6.05
2024-03-01T08:36:35.639Z,7.90
2024-03-01T08:39:18.145Z,8.10
2024-03-01T08:41:49.605Z,7.20
2024-03-01T08:47:06.157Z,8.27
2024-03-01T08:50:39.427Z,8.73
2024-03-01T08:53:52.285Z,8.38
2024-03-01T08:56:23.390Z,10.10
2024-03-01T09:01:50.408Z,9.52
2024-03-01T09:04:30.653Z,9.80
2024-03-01T09:07:10.082Z,9.03
2024-03-01T09:09:48.154Z,10.90
2024-03-01T09:12:27.083Z,10.32
2024-03-01T09:15:01.215Z,8.57
2024-03-01T09:17:30.361Z,9.50
2024-03-01T09:20:00.309Z,10.35
2024-03-01T09:22:29.421Z,8.13
2024-03-01T09:25:01.258Z,8.80
2024-03-01T09:27:33.322Z,8.85
2024-03-01T09:30:10.912Z,8.80
2024-03-01T09:32:39.891Z,10.23
2024-03-01T09:35:08.971Z,9.18
2024-03-01T09:37:37.726Z,7.38
2024-03-01T09:40:59.044Z,9.88
2024-03-01T09:43:41.659Z,9.60
2024-03-01T09:46:17.877Z,9.07
2024-03-01T09:49:02.817Z,8.23
2024-03-01T09:51:40.400Z,8.93
2024-03-01T09:54:23.416Z,8.23
2024-03-01T09:57:01.911Z,8.35
2024-03-01T09:59:39.825Z,8.57
2024-03-01T10:02:19.775Z,9.23
2024-03-01T10:05:09.232Z,9.00
2024-03-01T10:07:44.961Z,9.60
2024-03-01T10:10:37.757Z,10.52
2024-03-01T10:13:14.926Z,9.93
2024-03-01T10:16:00.738Z,11.80
2024-03-01T10:18:46.032Z,12.30
2024-03-01T10:21:27.853Z,12.95
2024-03-01T10:24:09.076Z,11.13
2024-03-01T10:31:56.260Z,14.15
2024-03-01T10:34:44.237Z,11.13
2024-03-01T10:37:22.174Z,11.27
2024-03-01T10:40:02.543Z,11.77
2024-03-01T10:42:32.112Z,10.98
2024-03-01T10:45:08.158Z,11.60
2024-03-01T10:47:38.681Z,11.07
2024-03-01T10:50:13.172Z,12.02
2024-03-01T10:52:45.153Z,10.52
2024-03-01T10:55:22.080Z,11.82
2024-03-01T10:58:00.682Z,12.23
2024-03-01T11:00:29.882Z,13.00
2024-03-01T11:03:09.223Z,11.95
2024-03-01T11:05:42.463Z,12.07
2024-03-01T11:08:25.894Z,10.75
2024-03-01T11:11:02.247Z,11.27
2024-03-01T11:13:35.160Z,10.65
2024-03-01T11:16:07.328Z,11.68
2024-03-01T11:18:43.423Z,11.68
2024-03-01T11:21:16.175Z,11.75
2024-03-01T11:23:57.149Z,12.13
2024-03-01T11:26:33.641Z,14.35
2024-03-01T11:29:08.180Z,11.93
2024-03-01T11:31:42.169Z,13.10
2024-03-01T11:34:20.527Z,12.40
2024-03-01T11:36:57.787Z,11.10
2024-03-01T11:39:41.634Z,14.75
2024-03-01T11:42:30.475Z,14.70
2024-03-01T11:45:12.301Z,13.30
2024-03-01T11:47:52.254Z,12.20
2024-03-01T11:50:40.300Z,13.80
2024-03-01T11:53:25.774Z,12.45
2024-03-01T11:56:10.769Z,11.98
2024-03-01T11:58:46.719Z,11.65
2024-03-01T12:01:29.787Z,11.43
2024-03-01T12:04:15.332Z,15.77
2024-03-01T12:07:12.925Z,16.80
2024-03-01T12:09:56.168Z,14.63
2024-03-01T12:12:36.097Z,14.13
2024-03-01T12:15:10.193Z,14.88
2024-03-01T12:17:51.648Z,15.93
2024-03-01T12:20:20.521Z,11.95
2024-03-01T12:23:26.012Z,13.90
2024-03-01T12:25:54.993Z,11.70
2024-03-01T12:28:42.354Z,11.70
2024-03-01T12:31:19.661Z,11.85
2024-03-01T12:34:07.962Z,12.43
2024-03-01T12:36:48.007Z,10.52
2024-03-01T12:39:23.415Z,12.88
2024-03-01T12:42:07.181Z,15.05
2024-03-01T12:44:47.214Z,14.82
2024-03-01T12:47:49.762Z,14.60
2024-03-01T12:50:31.769Z,15.32
2024-03-01T12:53:13.878Z,13.07
2024-03-01T12:55:54.846Z,12.60
2024-03-01T12:58:30.398Z,9.90
2024-03-01T13:01:11.277Z,9.88
2024-03-01T13:03:50.328Z,11.52
2024-03-01T13:06:19.961Z,8.25
2024-03-01T13:08:53.785Z,8.38
2024-03-01T13:11:26.407Z,7.93
2024-03-01T13:14:07.834Z,8.82
2024-03-01T13:16:38.090Z,11.15
2024-03-01T13:19:16.008Z,9.05
2024-03-01T13:21:50.398Z,9.82
2024-03-01T13:24:28.635Z,8.13
2024-03-01T13:27:16.435Z,7.00
2024-03-01T13:29:47.848Z,8.63
2024-03-01T13:32:25.394Z,7.95
2024-03-01T13:35:00.186Z,7.00
2024-03-01T13:37:37.676Z,7.72
2024-03-01T13:40:16.448Z,7.97
2024-03-01T13:42:52.639Z,7.50
2024-03-01T13:45:28.709Z,7.90
2024-03-01T13:48:08.594Z,10.90
2024-03-01T13:50:39.944Z,7.65
2024-03-01T13:55:39.177Z,8.77
2024-03-01T13:58:10.413Z,8.00
2024-03-01T14:00:50.293Z,7.45
2024-03-01T14:03:19.612Z,6.60
2024-03-01T14:05:50.146Z,7.47
2024-03-01T14:08:22.676Z,7.80
2024-03-01T14:10:54.001Z,7.53
2024-03-01T14:13:27.359Z,8.82
2024-03-01T14:16:04.518Z,6.40
2024-03-01T14:18:33.674Z,5.38
2024-03-01T14:21:02.878Z,8.43
2024-03-01T14:23:31.513Z,6.18
2024-03-01T14:26:00.876Z,5.93
2024-03-01T14:28:32.072Z,5.43
2024-03-01T14:31:02.432Z,6.60
2024-03-01T14:33:33.356Z,6.20
2024-03-01T14:36:06.848Z,5.78
2024-03-01T14:38:36.359Z,5.88
2024-03-01T14:41:08.506Z,6.30
2024-03-01T14:43:47.190Z,5.38
2024-03-01T14:46:33.030Z,6.55
2024-03-01T14:49:02.788Z,6.28
2024-03-01T14:51:31.917Z,6.75
2024-03-01T14:54:01.084Z,7.60
2024-03-01T14:56:29.754Z,5.20
2024-03-01T14:59:00.043Z,4.80
2024-03-01T15:01:30.320Z,6.00
2024-03-01T15:03:59.215Z,5.82
2024-03-01T15:06:27.942Z,6.03
2024-03-01T15:08:57.188Z,5.93
2024-03-01T15:11:28.913Z,6.90
2024-03-01T15:14:10.570Z,6.93
2024-03-01T15:16:43.861Z,5.43
2024-03-01T15:19:17.384Z,8.02
2024-03-01T15:21:47.504Z,5.68
2024-03-01T15:24:19.696Z,6.13
2024-03-01T15:26:48.915Z,7.15
2024-03-01T15:29:20.138Z,6.38
2024-03-01T15:31:49.355Z,7.35
2024-03-01T15:34:20.702Z,7.15
2024-03-01T15:36:50.730Z,7.25
2024-03-01T15:39:20.284Z,6.63
2024-03-01T15:41:49.028Z,7.85
2024-03-01T15:44:20.983Z,6.97
2024-03-01T15:46:50.536Z,7.43
2024-03-01T15:49:19.297Z,7.05
2024-03-01T15:51:47.996Z,7.28
2024-03-01T15:54:16.528Z,7.72
2024-03-01T15:56:45.171Z,7.40
2024-03-01T15:59:13.746Z,7.70
2024-03-01T16:01:44.159Z,6.50
2024-03-01T16:04:12.865Z,8.23
2024-03-01T16:06:41.799Z,8.30
2024-03-01T16:09:10.604Z,8.98
2024-03-01T16:11:43.978Z,8.98
2024-03-01T16:14:13.614Z,9.20
2024-03-01T16:16:44.370Z,7.93
2024-03-01T16:19:13.204Z,8.80
2024-03-01T16:21:41.958Z,9.65
2024-03-01T16:24:11.143Z,10.02
2024-03-01T16:26:40.187Z,10.40
2024-03-01T16:29:09.065Z,10.60
2024-03-01T16:31:37.901Z,9.93
2024-03-01T16:34:09.023Z,11.20
2024-03-01T16:36:37.662Z,11.02
2024-03-01T16:39:09.200Z,11.63
2024-03-01T16:41:40.027Z,10.65
2024-03-01T16:46:45.544Z,11.70
2024-03-01T16:49:35.383Z,10.85
2024-03-01T16:52:05.168Z,11.20
2024-03-01T16:54:35.439Z,12.27
2024-03-01T16:57:07.997Z,11.95
2024-03-01T16:59:37.161Z,12.13
2024-03-01T17:02:06.875Z,13.75
2024-03-01T17:04:37.599Z,12.77
2024-03-01T17:07:07.380Z,13.65
2024-03-01T17:09:36.060Z,11.95
2024-03-01T17:12:05.180Z,11.90
2024-03-01T17:23:07.390Z,11.70
2024-03-01T17:26:26.338Z,10.13
2024-03-01T17:32:10.000Z,9.82
2024-03-01T17:37:56.488Z,9.73
2024-03-01T17:41:06.172Z,11.43
2024-03-01T17:43:59.083Z,9.73
2024-03-01T17:49:42.887Z,10.05
2024-03-01T17:52:12.448Z,11.05
2024-03-01T17:54:43.396Z,11.18
2024-03-01T18:11:39.837Z,12.05
2024-03-01T18:14:11.000Z,11.30
2024-03-01T18:19:37.115Z,9.75
2024-03-01T18:22:06.561Z,12.70
2024-03-01T18:25:06.023Z,11.15
2024-03-01T18:31:19.000Z,11.52
2024-03-01T18:34:06.030Z,12.52
2024-03-01T18:37:05.324Z,11.35
2024-03-01T18:39:37.147Z,12.93
2024-03-01T18:42:16.180Z,12.85
2024-03-01T18:44:48.062Z,11.88
2024-03-01T18:47:48.773Z,11.68
2024-03-01T18:50:41.147Z,11.73
2024-03-01T18:56:23.499Z,12.45
2024-03-01T18:59:10.198Z,11.10
2024-03-01T19:01:39.902Z,10.52
2024-03-01T19:04:10.565Z,11.02
2024-03-01T19:06:49.667Z,10.48
2024-03-01T19:09:40.039Z,11.43
2024-03-01T19:12:37.546Z,10.93
2024-03-01T19:15:26.166Z,12.48
2024-03-01T19:18:00.730Z,11.18
2024-03-01T19:20:34.221Z,10.82
2024-03-01T19:23:13.855Z,12.15
2024-03-01T19:26:07.499Z,11.77
2024-03-01T19:28:55.703Z,10.45
2024-03-01T19:31:43.273Z,10.68
2024-03-01T19:34:35.661Z,10.05
2024-03-01T19:37:28.692Z,10.85
2024-03-01T19:40:01.904Z,9.98
2024-03-01T19:42:31.142Z,10.95
2024-03-01T19:48:10.531Z,11.05
2024-03-01T19:54:21.638Z,11.40
2024-03-01T19:56:53.371Z,10.70
2024-03-01T20:02:57.981Z,9.95
2024-03-01T20:05:29.652Z,9.95
2024-03-01T20:08:03.096Z,9.48
2024-03-01T20:13:29.220Z,10.50
2024-03-01T20:16:05.521Z,10.10
2024-03-01T20:18:38.237Z,9.57
2024-03-01T20:21:30.482Z,8.30
2024-03-01T20:27:11.481Z,10.13
2024-03-01T20:29:45.284Z,9.48
2024-03-01T20:32:14.160Z,10.05
2024-03-01T20:34:47.377Z,11.40
2024-03-01T20:38:07.795Z,9.15
2024-03-01T20:44:11.939Z,9.40
2024-03-01T20:47:01.253Z,9.90
2024-03-01T20:49:30.091Z,11.38
2024-03-01T20:52:15.029Z,8.02
2024-03-01T20:54:57.171Z,9.88
2024-03-01T20:57:48.326Z,9.88
2024-03-01T21:04:03.351Z,8.25
2024-03-01T21:06:50.957Z,8.15
2024-03-01T21:09:38.799Z,9.82
2024-03-01T21:12:22.568Z,6.75
2024-03-01T21:15:16.845Z,8.45
2024-03-01T21:17:52.328Z,9.52
2024-03-01T21:21:15.843Z,9.23
2024-03-01T21:24:13.432Z,7.40
2024-03-01T21:27:42.622Z,7.18
2024-03-01T21:34:28.576Z,5.90
2024-03-01T21:37:03.525Z,6.82
2024-03-01T21:39:34.953Z,7.00
2024-03-01T21:42:08.299Z,6.15
2024-03-01T21:44:39.674Z,6.15
2024-03-01T21:47:08.402Z,6.88
2024-03-01T21:49:39.570Z,8.70
2024-03-01T21:52:12.514Z,5.43
2024-03-01T21:54:41.642Z,5.30
2024-03-01T21:57:12.833Z,7.05
2024-03-01T21:59:52.744Z,6.80
2024-03-01T22:02:37.882Z,6.95
2024-03-01T22:05:30.338Z,5.05
2024-03-01T22:08:24.943Z,6.47
2024-03-01T22:11:29.174Z,5.75
2024-03-01T22:13:58.959Z,5.35
2024-03-01T22:16:28.253Z,5.03
2024-03-01T22:28:27.923Z,4.40
2024-03-01T22:34:00.634Z,5.40
2024-03-01T22:36:33.036Z,4.18
2024-03-01T22:42:55.127Z,4.22
2024-03-01T22:45:29.752Z,4.57
2024-03-01T22:48:52.779Z,5.65
2024-03-01T22:54:42.886Z,3.55
2024-03-01T22:57:16.702Z,3.65
2024-03-01T23:00:27.678Z,3.28
2024-03-01T23:07:11.567Z,5.75
2024-03-01T23:09:43.781Z,4.35
2024-03-01T23:12:13.385Z,6.70
2024-03-01T23:20:54.027Z,5.13
2024-03-01T23:29:33.255Z,3.80
2024-03-01T23:32:04.095Z,4.07
2024-03-01T23:34:46.399Z,4.43
2024-03-01T23:40:55.402Z,5.55
2024-03-01T23:43:45.676Z,5.97
2024-03-01T23:46:18.858Z,5.28
2024-03-01T23:49:03.249Z,4.68
2024-03-01T23:51:41.195Z,6.75
2024-03-01T23:54:35.958Z,5.00
2024-03-01T23:57:14.778Z,3.92
2024-03-01T23:59:50.033Z,6.00
